Time;durP1;ratioP1;P1;durP2;ratioP2;P2;SDS_P1;SDS_P2;PMS_P1;PMS_P2;Temp;Humidity;BMP_temperature;BMP_pressure;BME280_temperature;BME280_humidity;BME280_pressure;Samples;Min_cycle;Max_cycle;Signal;HPM_P1;HPM_P2
2021/10/16 00:01:05;;;;;;;6.37;4.30;;;;;;;;;;5118274;28;20209;-64
2021/10/16 00:03:33;;;;;;;8.57;4.30;;;;;;;;;;5118100;28;20237;-64
2021/10/16 00:06:01;;;;;;;5.90;4.57;;;;;;;;;;5118048;28;20209;-64
2021/10/16 00:08:30;;;;;;;7.03;5.17;;;;;;;;;;5118052;28;20693;-64
2021/10/16 00:10:58;;;;;;;5.47;4.97;;;;;;;;;;5118296;28;20211;-64
2021/10/16 00:13:26;;;;;;;6.03;4.60;;;;;;;;;;5104399;28;20291;-64
2021/10/16 00:15:54;;;;;;;6.40;5.20;;;;;;;;;;5118017;28;20267;-63
2021/10/16 00:18:23;;;;;;;7.23;5.10;;;;;;;;;;5118064;28;20204;-64
2021/10/16 00:20:51;;;;;;;6.77;5.40;;;;;;;;;;5117763;28;20204;-64
2021/10/16 00:23:19;;;;;;;7.47;4.97;;;;;;;;;;5118217;28;20205;-64
2021/10/16 00:25:48;;;;;;;6.50;4.63;;;;;;;;;;5117980;28;20239;-63
2021/10/16 00:28:16;;;;;;;5.43;4.30;;;;;;;;;;5117994;28;20215;-64
2021/10/16 00:30:44;;;;;;;7.33;4.63;;;;;;;;;;5118012;28;20213;-63
2021/10/16 00:33:13;;;;;;;6.50;4.93;;;;;;;;;;5117851;28;20209;-64
2021/10/16 00:35:42;;;;;;;12.23;5.20;;;;;;;;;;5117424;28;20232;-63
2021/10/16 00:38:10;;;;;;;8.53;4.90;;;;;;;;;;5117829;28;20219;-63
2021/10/16 00:40:38;;;;;;;7.33;4.40;;;;;;;;;;5117321;28;20228;-63
2021/10/16 00:43:07;;;;;;;7.03;4.60;;;;;;;;;;5118104;28;20264;-64
2021/10/16 00:45:35;;;;;;;6.47;4.67;;;;;;;;;;5117322;28;20667;-64
2021/10/16 00:48:03;;;;;;;5.33;4.67;;;;;;;;;;5119080;28;20215;-64
2021/10/16 00:50:31;;;;;;;6.93;4.63;;;;;;;;;;5118053;28;20213;-64
2021/10/16 00:52:59;;;;;;;7.57;4.70;;;;;;;;;;5117925;28;20235;-64
2021/10/16 00:55:28;;;;;;;7.47;5.47;;;;;;;;;;5117629;28;20269;-64
2021/10/16 00:57:59;;;;;;;7.03;5.30;;;;;;;;;;5118028;28;20236;-64
2021/10/16 01:00:28;;;;;;;6.10;4.37;;;;;;;;;;5117544;28;20201;-64
2021/10/16 01:02:57;;;;;;;5.40;4.70;;;;;;;;;;5117585;28;20258;-64
2021/10/16 01:05:25;;;;;;;7.57;5.10;;;;;;;;;;5117866;28;20229;-64
2021/10/16 01:07:53;;;;;;;6.90;4.30;;;;;;;;;;5117404;28;20227;-64
2021/10/16 01:10:21;;;;;;;5.90;5.07;;;;;;;;;;5117585;28;20213;-64
2021/10/16 01:12:50;;;;;;;5.93;4.60;;;;;;;;;;5121230;28;20222;-64
2021/10/16 01:15:19;;;;;;;7.23;5.00;;;;;;;;;;5120846;28;20261;-64
2021/10/16 01:17:48;;;;;;;9.50;4.73;;;;;;;;;;5121115;28;20207;-64
2021/10/16 01:20:17;;;;;;;7.47;4.67;;;;;;;;;;5121570;28;20209;-64
2021/10/16 01:22:48;;;;;;;7.70;4.70;;;;;;;;;;5120840;28;20677;-64
2021/10/16 01:25:17;;;;;;;8.67;4.80;;;;;;;;;;5120708;27;20292;-64
2021/10/16 01:27:45;;;;;;;6.13;5.00;;;;;;;;;;5120913;27;20235;-63
2021/10/16 01:30:14;;;;;;;5.53;4.40;;;;;;;;;;5120293;28;20209;-64
2021/10/16 01:32:43;;;;;;;6.30;4.83;;;;;;;;;;5120624;28;20211;-64
2021/10/16 01:35:12;;;;;;;6.53;4.80;;;;;;;;;;5120561;28;20236;-64
2021/10/16 01:37:40;;;;;;;6.50;5.07;;;;;;;;;;5120241;28;20542;-64
2021/10/16 01:40:11;;;;;;;6.33;4.83;;;;;;;;;;5121491;27;20278;-64
2021/10/16 01:42:42;;;;;;;5.90;5.30;;;;;;;;;;5129780;27;20200;-63
2021/10/16 01:45:13;;;;;;;7.00;5.03;;;;;;;;;;5129075;27;20591;-64
2021/10/16 01:47:48;;;;;;;7.23;5.33;;;;;;;;;;5126820;27;20282;-65
2021/10/16 01:50:16;;;;;;;6.40;4.97;;;;;;;;;;5126328;27;20208;-64
2021/10/16 01:52:44;;;;;;;8.87;5.57;;;;;;;;;;5125908;27;20197;-63
2021/10/16 01:55:13;;;;;;;7.27;5.33;;;;;;;;;;5128089;27;20225;-64
2021/10/16 01:57:42;;;;;;;7.40;5.30;;;;;;;;;;5130974;27;20193;-64
2021/10/16 02:00:10;;;;;;;6.70;5.20;;;;;;;;;;5127431;27;20292;-64
2021/10/16 02:02:38;;;;;;;5.70;5.10;;;;;;;;;;5128956;27;20228;-64
2021/10/16 02:05:07;;;;;;;6.27;5.33;;;;;;;;;;5126623;27;20688;-64
2021/10/16 02:07:36;;;;;;;7.57;5.30;;;;;;;;;;5119653;28;20680;-64
2021/10/16 02:10:04;;;;;;;6.90;5.23;;;;;;;;;;5119705;28;20207;-64
2021/10/16 02:12:33;;;;;;;7.83;5.57;;;;;;;;;;5117178;28;20215;-64
2021/10/16 02:15:01;;;;;;;10.03;5.83;;;;;;;;;;5124888;27;20231;-64
2021/10/16 02:17:29;;;;;;;5.97;4.93;;;;;;;;;;5129176;27;20250;-64
2021/10/16 02:19:57;;;;;;;7.30;5.07;;;;;;;;;;5128954;27;20205;-64
2021/10/16 02:22:25;;;;;;;6.83;5.23;;;;;;;;;;5125186;27;20201;-64
2021/10/16 02:24:53;;;;;;;6.70;5.30;;;;;;;;;;5124220;27;20300;-64
2021/10/16 02:27:21;;;;;;;7.80;5.20;;;;;;;;;;5119199;27;20209;-64
2021/10/16 02:29:50;;;;;;;8.43;5.40;;;;;;;;;;5118901;28;20208;-64
2021/10/16 02:32:18;;;;;;;11.27;4.97;;;;;;;;;;5119233;28;20227;-64
2021/10/16 02:34:46;;;;;;;6.87;5.10;;;;;;;;;;5119555;28;20224;-64
2021/10/16 02:37:14;;;;;;;6.50;4.87;;;;;;;;;;5119466;28;20208;-63
2021/10/16 02:39:42;;;;;;;6.73;4.63;;;;;;;;;;5119261;28;20239;-64
2021/10/16 02:42:10;;;;;;;11.47;5.70;;;;;;;;;;5119280;28;20209;-64
2021/10/16 02:44:38;;;;;;;9.60;5.70;;;;;;;;;;5118884;28;20235;-64
2021/10/16 02:47:08;;;;;;;7.43;5.60;;;;;;;;;;5118999;28;20208;-64
2021/10/16 02:49:36;;;;;;;5.60;4.93;;;;;;;;;;5119129;28;20205;-64
2021/10/16 02:52:04;;;;;;;6.77;4.87;;;;;;;;;;5118954;28;20686;-64
2021/10/16 02:54:32;;;;;;;9.97;5.63;;;;;;;;;;5119321;28;20227;-64
2021/10/16 02:57:00;;;;;;;7.27;5.73;;;;;;;;;;5119057;28;20288;-63
2021/10/16 02:59:28;;;;;;;5.97;4.87;;;;;;;;;;5118936;28;20212;-63
2021/10/16 03:01:56;;;;;;;10.73;5.23;;;;;;;;;;5118998;28;20205;-63
2021/10/16 03:04:25;;;;;;;6.83;4.77;;;;;;;;;;5118891;28;20220;-64
2021/10/16 03:06:53;;;;;;;7.27;5.30;;;;;;;;;;5118897;28;20210;-64
2021/10/16 03:09:21;;;;;;;7.47;5.47;;;;;;;;;;5118752;28;20321;-64
2021/10/16 03:11:49;;;;;;;6.60;4.70;;;;;;;;;;5118946;28;20646;-63
2021/10/16 03:14:17;;;;;;;6.00;4.60;;;;;;;;;;5118486;28;20228;-64
2021/10/16 03:16:45;;;;;;;7.83;4.60;;;;;;;;;;5118618;28;20312;-64
2021/10/16 03:19:13;;;;;;;7.57;5.00;;;;;;;;;;5118967;28;20209;-64
2021/10/16 03:21:42;;;;;;;5.20;4.53;;;;;;;;;;5118917;28;20664;-63
2021/10/16 03:24:10;;;;;;;7.00;5.10;;;;;;;;;;5118241;28;20224;-64
2021/10/16 03:26:38;;;;;;;6.07;4.50;;;;;;;;;;5118510;28;20196;-64
2021/10/16 03:29:06;;;;;;;9.10;5.23;;;;;;;;;;5118302;28;20288;-64
2021/10/16 03:31:34;;;;;;;5.97;4.83;;;;;;;;;;5118572;28;20212;-64
2021/10/16 03:34:02;;;;;;;5.37;4.63;;;;;;;;;;5117498;28;20600;-64
2021/10/16 03:36:30;;;;;;;9.53;5.00;;;;;;;;;;5118448;28;20227;-63
2021/10/16 03:39:00;;;;;;;7.13;4.90;;;;;;;;;;5118112;28;20247;-64
2021/10/16 03:41:28;;;;;;;9.67;5.33;;;;;;;;;;5118311;28;20549;-64
2021/10/16 03:43:56;;;;;;;7.30;5.47;;;;;;;;;;5117860;28;20228;-64
2021/10/16 03:46:24;;;;;;;6.80;5.37;;;;;;;;;;5118375;28;20200;-64
2021/10/16 03:48:52;;;;;;;8.57;4.87;;;;;;;;;;5118302;28;20212;-64
2021/10/16 03:51:20;;;;;;;5.77;4.90;;;;;;;;;;5110631;28;20200;-64
2021/10/16 03:53:48;;;;;;;7.60;5.60;;;;;;;;;;5118222;28;20233;-64
2021/10/16 03:56:17;;;;;;;7.73;5.53;;;;;;;;;;5118198;28;20705;-64
2021/10/16 03:58:45;;;;;;;5.77;5.20;;;;;;;;;;5117845;28;20731;-64
2021/10/16 04:01:13;;;;;;;6.60;5.00;;;;;;;;;;5118029;28;20287;-64
2021/10/16 04:03:41;;;;;;;7.47;4.80;;;;;;;;;;5118258;28;20208;-63
2021/10/16 04:06:09;;;;;;;7.43;5.30;;;;;;;;;;5118194;28;20201;-64
2021/10/16 04:08:37;;;;;;;6.10;4.60;;;;;;;;;;5118293;28;20201;-64
2021/10/16 04:11:05;;;;;;;7.00;4.63;;;;;;;;;;5118187;28;20207;-64
2021/10/16 04:13:34;;;;;;;5.00;4.47;;;;;;;;;;5117970;28;20209;-63
2021/10/16 04:16:02;;;;;;;8.57;5.33;;;;;;;;;;5115213;28;20853;-64
2021/10/16 04:18:30;;;;;;;7.80;4.97;;;;;;;;;;5109297;28;20235;-64
2021/10/16 04:20:58;;;;;;;7.30;5.37;;;;;;;;;;5110772;28;20201;-64
2021/10/16 04:23:26;;;;;;;11.07;5.70;;;;;;;;;;5110824;28;20194;-64
2021/10/16 04:25:54;;;;;;;5.77;5.10;;;;;;;;;;5113708;28;20283;-64
2021/10/16 04:28:22;;;;;;;7.87;5.43;;;;;;;;;;5115152;28;20208;-64
2021/10/16 04:30:51;;;;;;;8.70;5.53;;;;;;;;;;5111192;28;20197;-64
2021/10/16 04:33:20;;;;;;;7.60;5.67;;;;;;;;;;5111850;28;20216;-65
2021/10/16 04:35:48;;;;;;;6.40;4.70;;;;;;;;;;5111744;28;20217;-64
2021/10/16 04:38:16;;;;;;;7.70;6.37;;;;;;;;;;5111968;28;20212;-67
2021/10/16 04:40:45;;;;;;;7.33;6.23;;;;;;;;;;5117549;28;20609;-63
2021/10/16 04:43:13;;;;;;;6.20;5.50;;;;;;;;;;5127122;28;20196;-64
2021/10/16 04:45:41;;;;;;;10.27;6.10;;;;;;;;;;5128554;27;20216;-66
2021/10/16 04:48:10;;;;;;;7.97;5.87;;;;;;;;;;5121765;28;20664;-66
2021/10/16 04:50:38;;;;;;;7.43;5.90;;;;;;;;;;5121647;28;20268;-66
2021/10/16 04:53:06;;;;;;;8.80;5.43;;;;;;;;;;5124117;27;20547;-67
2021/10/16 04:55:35;;;;;;;10.40;5.97;;;;;;;;;;5130446;27;20223;-68
2021/10/16 04:58:03;;;;;;;9.03;6.10;;;;;;;;;;5126949;27;20216;-67
2021/10/16 05:00:31;;;;;;;7.50;5.80;;;;;;;;;;5129037;27;20196;-66
2021/10/16 05:02:59;;;;;;;8.00;5.97;;;;;;;;;;5126639;27;20284;-66
2021/10/16 05:05:28;;;;;;;9.63;6.30;;;;;;;;;;5121677;27;20305;-66
2021/10/16 05:07:56;;;;;;;11.43;6.37;;;;;;;;;;5129431;27;20276;-65
2021/10/16 05:10:25;;;;;;;8.17;6.87;;;;;;;;;;5127416;27;20720;-65
2021/10/16 05:12:53;;;;;;;12.77;6.57;;;;;;;;;;5107234;27;20201;-65
2021/10/16 05:15:21;;;;;;;10.50;6.13;;;;;;;;;;5120576;28;20221;-65
2021/10/16 05:17:49;;;;;;;11.77;6.27;;;;;;;;;;5120501;28;20316;-65
2021/10/16 05:20:17;;;;;;;9.90;6.40;;;;;;;;;;5121030;28;20236;-65
2021/10/16 05:22:47;;;;;;;11.47;6.07;;;;;;;;;;5120857;28;20201;-65
2021/10/16 05:25:16;;;;;;;8.13;6.13;;;;;;;;;;5121248;28;20228;-65
2021/10/16 05:27:44;;;;;;;9.87;6.43;;;;;;;;;;5120671;28;20189;-66
2021/10/16 05:30:12;;;;;;;10.80;7.17;;;;;;;;;;5110739;28;20197;-66
2021/10/16 05:32:41;;;;;;;9.33;6.43;;;;;;;;;;5120382;28;20193;-66
2021/10/16 05:35:09;;;;;;;10.40;7.03;;;;;;;;;;5113017;27;20223;-66
2021/10/16 05:37:37;;;;;;;10.67;6.63;;;;;;;;;;5129480;27;20223;-66
2021/10/16 05:40:07;;;;;;;8.23;6.17;;;;;;;;;;5130107;27;20228;-67
2021/10/16 05:42:35;;;;;;;11.83;5.77;;;;;;;;;;5129031;27;20193;-66
2021/10/16 05:45:03;;;;;;;10.57;6.40;;;;;;;;;;5128970;27;20217;-67
2021/10/16 05:47:31;;;;;;;11.27;6.43;;;;;;;;;;5128667;27;20209;-68
2021/10/16 05:49:59;;;;;;;8.73;5.80;;;;;;;;;;5131001;27;20208;-67
2021/10/16 05:52:27;;;;;;;8.90;6.13;;;;;;;;;;5127137;27;20204;-66
2021/10/16 05:54:55;;;;;;;10.97;6.43;;;;;;;;;;5128716;27;20216;-64
2021/10/16 05:57:25;;;;;;;7.73;6.33;;;;;;;;;;5128402;27;20216;-64
2021/10/16 05:59:52;;;;;;;10.20;6.03;;;;;;;;;;5123933;27;20288;-64
2021/10/16 06:02:20;;;;;;;9.00;6.57;;;;;;;;;;5126148;27;20280;-65
2021/10/16 06:04:48;;;;;;;10.43;7.03;;;;;;;;;;5126739;27;20212;-65
2021/10/16 06:07:16;;;;;;;11.47;6.93;;;;;;;;;;5131113;27;20227;-64
2021/10/16 06:09:44;;;;;;;9.97;6.93;;;;;;;;;;5129057;27;20203;-64
2021/10/16 06:12:12;;;;;;;8.73;6.87;;;;;;;;;;5130438;27;20227;-64
2021/10/16 06:14:42;;;;;;;11.00;7.07;;;;;;;;;;5126309;27;20217;-64
2021/10/16 06:17:10;;;;;;;10.07;7.30;;;;;;;;;;5131060;27;20224;-64
2021/10/16 06:19:39;;;;;;;13.90;7.37;;;;;;;;;;5126976;27;20205;-64
2021/10/16 06:22:07;;;;;;;11.17;6.93;;;;;;;;;;5128394;27;20216;-64
2021/10/16 06:24:35;;;;;;;10.67;7.13;;;;;;;;;;5128732;27;20212;-64
2021/10/16 06:27:03;;;;;;;11.50;7.53;;;;;;;;;;5128159;27;20205;-64
2021/10/16 06:29:31;;;;;;;10.03;7.43;;;;;;;;;;5125348;27;20201;-64
2021/10/16 06:32:00;;;;;;;17.47;7.70;;;;;;;;;;5129157;27;20200;-64
2021/10/16 06:34:28;;;;;;;9.80;7.17;;;;;;;;;;5129530;27;20216;-64
2021/10/16 06:36:56;;;;;;;9.50;7.50;;;;;;;;;;5128659;27;20207;-65
2021/10/16 06:39:24;;;;;;;17.97;10.30;;;;;;;;;;5127369;27;20224;-65
2021/10/16 06:41:52;;;;;;;10.17;7.37;;;;;;;;;;5127712;27;20660;-64
2021/10/16 06:44:20;;;;;;;11.20;8.07;;;;;;;;;;5127214;27;20223;-64
2021/10/16 06:46:48;;;;;;;13.17;8.67;;;;;;;;;;5129491;27;20197;-64
2021/10/16 06:49:17;;;;;;;12.67;9.77;;;;;;;;;;5128724;27;20215;-64
2021/10/16 06:51:45;;;;;;;13.30;9.40;;;;;;;;;;5126523;27;20220;-64
2021/10/16 06:54:14;;;;;;;15.57;9.77;;;;;;;;;;5127273;27;20701;-65
2021/10/16 06:56:44;;;;;;;18.00;9.53;;;;;;;;;;5125762;27;20664;-64
2021/10/16 06:59:12;;;;;;;13.17;9.87;;;;;;;;;;5127091;27;20220;-65
2021/10/16 07:01:40;;;;;;;14.40;9.30;;;;;;;;;;5124224;27;20220;-64
2021/10/16 07:04:09;;;;;;;13.40;9.30;;;;;;;;;;5128255;27;20219;-65
2021/10/16 07:06:40;;;;;;;13.63;8.73;;;;;;;;;;5127911;27;20249;-65
2021/10/16 07:09:08;;;;;;;15.77;9.10;;;;;;;;;;5125609;27;20242;-65
2021/10/16 07:11:36;;;;;;;9.63;7.67;;;;;;;;;;5127003;27;20793;-64
2021/10/16 07:14:04;;;;;;;12.73;8.33;;;;;;;;;;5116750;27;20711;-64
2021/10/16 07:16:32;;;;;;;16.23;9.17;;;;;;;;;;5121796;27;20284;-64
2021/10/16 07:19:00;;;;;;;12.67;8.47;;;;;;;;;;5126828;27;20228;-65
2021/10/16 07:21:28;;;;;;;12.27;8.60;;;;;;;;;;5129278;27;20208;-65
2021/10/16 07:24:01;;;;;;;11.60;8.60;;;;;;;;;;5124961;27;20220;-64
2021/10/16 07:26:30;;;;;;;11.80;9.47;;;;;;;;;;5126647;27;20209;-64
2021/10/16 07:28:58;;;;;;;11.73;8.10;;;;;;;;;;5117563;28;20593;-65
2021/10/16 07:31:28;;;;;;;14.47;9.90;;;;;;;;;;5124378;27;20227;-64
2021/10/16 07:33:59;;;;;;;14.03;8.60;;;;;;;;;;5126995;27;20212;-64
2021/10/16 07:36:34;;;;;;;12.87;9.03;;;;;;;;;;5111570;28;20202;-64
2021/10/16 07:39:05;;;;;;;14.10;9.27;;;;;;;;;;5117664;28;20327;-64
2021/10/16 07:41:33;;;;;;;14.70;10.73;;;;;;;;;;5123086;27;20206;-63
2021/10/16 07:44:02;;;;;;;14.60;10.17;;;;;;;;;;5119676;27;20239;-64
2021/10/16 07:46:30;;;;;;;22.63;10.63;;;;;;;;;;5118146;28;20268;-63
2021/10/16 07:48:58;;;;;;;15.67;10.73;;;;;;;;;;5118155;28;20198;-63
2021/10/16 07:51:28;;;;;;;15.70;10.60;;;;;;;;;;5118197;28;20761;-64
2021/10/16 07:53:56;;;;;;;17.43;10.93;;;;;;;;;;5117997;28;20231;-63
2021/10/16 07:56:26;;;;;;;18.80;10.50;;;;;;;;;;5117492;28;20203;-63
2021/10/16 07:58:57;;;;;;;15.13;10.00;;;;;;;;;;5117443;28;20221;-63
2021/10/16 08:01:25;;;;;;;16.47;11.37;;;;;;;;;;5111743;28;20232;-63
2021/10/16 08:03:53;;;;;;;16.37;11.50;;;;;;;;;;5117912;28;20229;-64
2021/10/16 08:06:21;;;;;;;15.23;11.00;;;;;;;;;;5117971;28;20295;-63
2021/10/16 08:08:50;;;;;;;18.57;11.77;;;;;;;;;;5118165;28;20205;-64
2021/10/16 08:11:18;;;;;;;20.23;12.17;;;;;;;;;;5117976;28;20205;-64
2021/10/16 08:13:47;;;;;;;19.87;12.20;;;;;;;;;;5117595;28;20616;-64
2021/10/16 08:16:15;;;;;;;20.30;13.60;;;;;;;;;;5117967;28;20215;-64
2021/10/16 08:18:43;;;;;;;18.87;12.13;;;;;;;;;;5117784;28;20311;-64
2021/10/16 08:21:11;;;;;;;18.57;12.83;;;;;;;;;;5120461;28;20204;-64
2021/10/16 08:23:40;;;;;;;18.27;12.40;;;;;;;;;;5120676;28;20209;-64
2021/10/16 08:26:08;;;;;;;21.20;13.00;;;;;;;;;;5121855;27;20200;-64
2021/10/16 08:28:36;;;;;;;22.20;12.57;;;;;;;;;;5121441;28;20641;-64
2021/10/16 08:31:06;;;;;;;18.83;12.67;;;;;;;;;;5121703;28;20261;-64
2021/10/16 08:33:37;;;;;;;19.60;13.50;;;;;;;;;;5121535;28;20241;-64
2021/10/16 08:36:05;;;;;;;21.37;13.60;;;;;;;;;;5121720;27;20205;-63
2021/10/16 08:38:33;;;;;;;23.37;14.37;;;;;;;;;;5121437;28;20225;-63
2021/10/16 08:41:01;;;;;;;22.50;14.87;;;;;;;;;;5121314;28;20585;-64
2021/10/16 08:43:29;;;;;;;20.20;14.77;;;;;;;;;;5120990;27;20207;-64
2021/10/16 08:46:00;;;;;;;18.67;13.53;;;;;;;;;;5121616;28;20281;-64
2021/10/16 08:48:30;;;;;;;22.37;13.37;;;;;;;;;;5121669;28;20201;-64
2021/10/16 08:50:59;;;;;;;20.77;13.80;;;;;;;;;;5121423;28;20200;-63
2021/10/16 08:53:27;;;;;;;20.03;13.53;;;;;;;;;;5123834;27;20278;-63
2021/10/16 08:55:55;;;;;;;19.27;14.13;;;;;;;;;;5126884;27;20280;-63
2021/10/16 08:58:23;;;;;;;19.70;14.23;;;;;;;;;;5129514;27;20284;-63
2021/10/16 09:00:52;;;;;;;20.93;12.93;;;;;;;;;;5121021;28;20746;-63
2021/10/16 09:03:24;;;;;;;23.50;14.03;;;;;;;;;;5120961;28;20205;-64
2021/10/16 09:06:04;;;;;;;16.80;12.37;;;;;;;;;;5121113;28;20266;-63
2021/10/16 09:08:33;;;;;;;20.63;13.43;;;;;;;;;;5121251;28;20240;-64
2021/10/16 09:11:14;;;;;;;18.57;12.57;;;;;;;;;;5121060;28;20209;-63
2021/10/16 09:13:46;;;;;;;18.67;13.57;;;;;;;;;;5120399;28;20555;-63
2021/10/16 09:16:34;;;;;;;23.47;13.83;;;;;;;;;;5120618;28;20200;-63
2021/10/16 09:19:17;;;;;;;21.63;13.67;;;;;;;;;;5118882;28;20227;-63
2021/10/16 09:21:48;;;;;;;20.37;12.93;;;;;;;;;;5119315;28;20292;-63
2021/10/16 09:24:17;;;;;;;20.90;13.27;;;;;;;;;;5120710;28;20227;-63
2021/10/16 09:26:46;;;;;;;19.37;13.53;;;;;;;;;;5120922;28;20211;-63
2021/10/16 09:29:15;;;;;;;18.67;12.57;;;;;;;;;;5120098;28;20211;-63
2021/10/16 09:31:44;;;;;;;20.20;12.93;;;;;;;;;;5119330;28;20205;-63
2021/10/16 09:34:12;;;;;;;17.23;11.57;;;;;;;;;;5120453;28;20726;-63
2021/10/16 09:36:42;;;;;;;16.80;12.10;;;;;;;;;;5120249;27;20205;-63
2021/10/16 09:39:17;;;;;;;16.50;12.17;;;;;;;;;;5119993;28;20237;-63
2021/10/16 09:41:46;;;;;;;17.17;11.40;;;;;;;;;;5120239;28;20206;-62
2021/10/16 09:44:21;;;;;;;16.03;12.57;;;;;;;;;;5120503;27;20329;-63
2021/10/16 09:47:03;;;;;;;15.97;11.07;;;;;;;;;;5128469;27;20205;-63
2021/10/16 09:49:32;;;;;;;14.50;10.60;;;;;;;;;;5131331;27;20335;-63
2021/10/16 09:52:02;;;;;;;16.80;11.90;;;;;;;;;;5124511;27;20569;-63
2021/10/16 09:54:34;;;;;;;15.47;11.03;;;;;;;;;;5136384;27;20220;-63
2021/10/16 09:57:05;;;;;;;17.67;11.00;;;;;;;;;;5126305;27;20204;-63
2021/10/16 09:59:34;;;;;;;14.53;10.80;;;;;;;;;;5119631;28;20292;-63
2021/10/16 10:02:03;;;;;;;14.53;11.43;;;;;;;;;;5122277;27;20204;-63
2021/10/16 10:04:31;;;;;;;13.77;11.07;;;;;;;;;;5128131;27;20268;-63
2021/10/16 10:07:01;;;;;;;14.00;10.60;;;;;;;;;;5129943;27;20204;-63
2021/10/16 10:09:31;;;;;;;14.97;10.93;;;;;;;;;;5129584;27;20188;-63
2021/10/16 10:12:00;;;;;;;16.50;11.40;;;;;;;;;;5127777;27;20656;-62
2021/10/16 10:14:28;;;;;;;11.53;9.87;;;;;;;;;;5127562;27;20790;-62
2021/10/16 10:16:58;;;;;;;15.57;10.60;;;;;;;;;;5125091;27;20215;-63
2021/10/16 10:19:28;;;;;;;14.97;10.83;;;;;;;;;;5126871;27;20300;-63
2021/10/16 10:21:56;;;;;;;15.47;10.20;;;;;;;;;;5126738;27;20240;-62
2021/10/16 10:24:38;;;;;;;16.83;10.53;;;;;;;;;;5130515;27;20226;-62
2021/10/16 10:27:07;;;;;;;12.73;10.53;;;;;;;;;;5119235;28;20201;-63
2021/10/16 10:29:36;;;;;;;15.40;11.00;;;;;;;;;;5116090;28;20199;-62
2021/10/16 10:32:07;;;;;;;14.67;10.73;;;;;;;;;;5119133;28;20204;-62
2021/10/16 10:34:41;;;;;;;15.20;10.07;;;;;;;;;;5119103;28;20212;-62
2021/10/16 10:37:11;;;;;;;15.33;10.50;;;;;;;;;;5119179;28;20276;-62
2021/10/16 10:39:45;;;;;;;15.23;10.50;;;;;;;;;;5119701;27;20235;-63
2021/10/16 10:42:46;;;;;;;16.97;10.50;;;;;;;;;;5116457;28;20567;-63
2021/10/16 10:45:34;;;;;;;13.63;10.00;;;;;;;;;;5116606;28;20226;-63
2021/10/16 10:48:07;;;;;;;17.77;10.37;;;;;;;;;;5116098;28;20276;-63
2021/10/16 10:50:42;;;;;;;15.90;10.33;;;;;;;;;;5117222;28;20561;-62
2021/10/16 10:53:12;;;;;;;14.27;10.07;;;;;;;;;;5124033;27;20236;-63
2021/10/16 10:55:51;;;;;;;14.33;9.67;;;;;;;;;;5122473;27;20269;-63
2021/10/16 10:58:20;;;;;;;17.27;10.47;;;;;;;;;;5128402;27;20659;-63
2021/10/16 11:00:49;;;;;;;14.17;10.03;;;;;;;;;;5123812;27;20226;-62
2021/10/16 11:03:37;;;;;;;14.67;10.57;;;;;;;;;;5126215;27;20734;-62
2021/10/16 11:06:17;;;;;;;15.33;10.80;;;;;;;;;;5124076;27;20641;-63
2021/10/16 11:08:48;;;;;;;15.53;10.37;;;;;;;;;;5122251;27;20201;-63
2021/10/16 11:11:18;;;;;;;16.50;11.53;;;;;;;;;;5126330;27;20279;-63
2021/10/16 11:13:46;;;;;;;14.67;10.83;;;;;;;;;;5127333;27;20283;-63
2021/10/16 11:16:14;;;;;;;14.63;10.67;;;;;;;;;;5118629;28;20215;-63
2021/10/16 11:18:42;;;;;;;16.40;10.20;;;;;;;;;;5118898;28;20215;-63
2021/10/16 11:21:11;;;;;;;14.67;10.13;;;;;;;;;;5118780;28;20220;-63
2021/10/16 11:23:40;;;;;;;14.67;10.43;;;;;;;;;;5118571;28;20205;-63
2021/10/16 11:26:09;;;;;;;16.00;10.47;;;;;;;;;;5118658;28;20215;-63
2021/10/16 11:28:39;;;;;;;15.60;10.07;;;;;;;;;;5118246;28;20205;-63
2021/10/16 11:31:08;;;;;;;15.67;10.30;;;;;;;;;;5118207;28;20207;-62
2021/10/16 11:33:39;;;;;;;17.10;11.43;;;;;;;;;;5118418;28;20217;-63
2021/10/16 11:36:08;;;;;;;16.10;10.77;;;;;;;;;;5118549;28;20218;-63
2021/10/16 11:38:38;;;;;;;17.63;12.47;;;;;;;;;;5117890;28;20212;-63
2021/10/16 11:41:06;;;;;;;16.60;11.07;;;;;;;;;;5117725;28;20224;-63
2021/10/16 11:43:36;;;;;;;15.47;10.80;;;;;;;;;;5117375;28;20690;-63
2021/10/16 11:46:05;;;;;;;16.47;10.40;;;;;;;;;;5117617;28;20209;-62
2021/10/16 11:48:33;;;;;;;16.63;11.10;;;;;;;;;;5118032;28;20288;-63
2021/10/16 11:51:03;;;;;;;16.57;11.03;;;;;;;;;;5117986;28;20211;-63
2021/10/16 11:53:32;;;;;;;17.40;10.67;;;;;;;;;;5118038;28;20281;-62
2021/10/16 11:56:01;;;;;;;19.07;11.27;;;;;;;;;;5117430;28;20268;-63
2021/10/16 11:58:30;;;;;;;16.13;11.10;;;;;;;;;;5117517;28;20228;-63
2021/10/16 12:00:59;;;;;;;14.87;10.23;;;;;;;;;;5117883;28;20225;-63
2021/10/16 12:03:31;;;;;;;13.60;10.70;;;;;;;;;;5117957;28;20299;-63
2021/10/16 12:06:04;;;;;;;17.13;11.23;;;;;;;;;;5117660;28;20251;-63
2021/10/16 12:08:40;;;;;;;14.80;11.37;;;;;;;;;;5117941;28;20207;-63
2021/10/16 12:11:08;;;;;;;18.30;11.57;;;;;;;;;;5117767;28;20201;-63
2021/10/16 12:13:37;;;;;;;14.73;10.00;;;;;;;;;;5117419;28;20208;-63
2021/10/16 12:16:12;;;;;;;15.20;10.67;;;;;;;;;;5117434;28;20283;-63
2021/10/16 12:18:50;;;;;;;18.93;11.20;;;;;;;;;;5117890;28;20214;-62
2021/10/16 12:21:25;;;;;;;16.53;10.90;;;;;;;;;;5117395;28;20336;-63
2021/10/16 12:23:53;;;;;;;16.03;11.23;;;;;;;;;;5117477;28;20224;-63
2021/10/16 12:26:22;;;;;;;14.97;10.33;;;;;;;;;;5117599;28;20210;-63
2021/10/16 12:28:51;;;;;;;15.50;11.23;;;;;;;;;;5117257;28;20267;-63
2021/10/16 12:31:19;;;;;;;16.60;11.60;;;;;;;;;;5117247;28;20204;-63
2021/10/16 12:34:02;;;;;;;15.33;11.23;;;;;;;;;;5117391;28;20205;-63
2021/10/16 12:36:31;;;;;;;22.93;10.53;;;;;;;;;;5117467;28;20205;-63
2021/10/16 12:38:59;;;;;;;18.30;10.80;;;;;;;;;;5117323;28;20236;-63
2021/10/16 12:41:32;;;;;;;17.57;11.40;;;;;;;;;;5117221;28;20217;-63
2021/10/16 12:44:17;;;;;;;13.27;9.83;;;;;;;;;;5116864;28;20233;-63
2021/10/16 12:46:45;;;;;;;12.63;9.67;;;;;;;;;;5117187;28;20211;-63
2021/10/16 12:49:31;;;;;;;17.63;11.37;;;;;;;;;;5117380;28;20211;-63
2021/10/16 12:52:00;;;;;;;19.53;11.03;;;;;;;;;;5117181;28;20240;-63
2021/10/16 12:54:32;;;;;;;13.53;10.17;;;;;;;;;;5117473;28;20227;-63
2021/10/16 12:57:08;;;;;;;21.40;10.53;;;;;;;;;;5116983;28;20292;-63
2021/10/16 12:59:36;;;;;;;17.20;10.83;;;;;;;;;;5116883;28;20204;-63
2021/10/16 13:02:05;;;;;;;17.27;10.83;;;;;;;;;;5116741;28;20316;-63
2021/10/16 13:04:41;;;;;;;15.60;10.37;;;;;;;;;;5117290;28;20311;-63
2021/10/16 13:07:09;;;;;;;16.30;9.63;;;;;;;;;;5119637;28;20204;-63
2021/10/16 13:09:37;;;;;;;12.63;10.10;;;;;;;;;;5120979;28;20215;-63
2021/10/16 13:12:06;;;;;;;15.00;10.10;;;;;;;;;;5120696;28;20288;-63
2021/10/16 13:14:34;;;;;;;16.23;10.50;;;;;;;;;;5120400;28;20229;-63
2021/10/16 13:17:02;;;;;;;15.27;10.80;;;;;;;;;;5120510;28;20284;-63
2021/10/16 13:19:30;;;;;;;13.50;9.60;;;;;;;;;;5120832;28;20254;-63
2021/10/16 13:21:59;;;;;;;13.47;9.67;;;;;;;;;;5120872;28;20235;-63
2021/10/16 13:24:27;;;;;;;13.83;9.97;;;;;;;;;;5120902;28;20217;-63
2021/10/16 13:26:55;;;;;;;13.30;9.93;;;;;;;;;;5120310;28;20232;-62
2021/10/16 13:29:23;;;;;;;11.63;8.80;;;;;;;;;;5120146;27;20219;-63
2021/10/16 13:31:51;;;;;;;11.70;9.30;;;;;;;;;;5120411;28;20219;-63
2021/10/16 13:34:20;;;;;;;14.93;10.17;;;;;;;;;;5120203;28;20231;-63
2021/10/16 13:36:48;;;;;;;13.80;10.33;;;;;;;;;;5120331;28;20210;-63
2021/10/16 13:39:17;;;;;;;13.83;10.40;;;;;;;;;;5120314;28;20239;-64
2021/10/16 13:41:45;;;;;;;13.20;8.83;;;;;;;;;;5120172;28;20308;-64
2021/10/16 13:44:15;;;;;;;11.77;8.03;;;;;;;;;;5120180;28;20231;-64
2021/10/16 13:46:43;;;;;;;13.40;8.97;;;;;;;;;;5122513;27;20694;-65
2021/10/16 13:49:11;;;;;;;12.53;9.27;;;;;;;;;;5128930;27;20323;-63
2021/10/16 13:51:39;;;;;;;12.90;9.57;;;;;;;;;;5125861;27;20189;-63
2021/10/16 13:54:08;;;;;;;14.83;9.77;;;;;;;;;;5130994;27;20308;-63
2021/10/16 13:56:37;;;;;;;11.73;8.63;;;;;;;;;;5119811;28;20215;-63
2021/10/16 13:59:06;;;;;;;14.37;9.43;;;;;;;;;;5120118;28;20268;-63
2021/10/16 14:01:34;;;;;;;13.27;9.93;;;;;;;;;;5119860;27;20221;-63
2021/10/16 14:04:02;;;;;;;15.93;9.90;;;;;;;;;;5119640;28;20320;-63
2021/10/16 14:06:30;;;;;;;17.50;9.13;;;;;;;;;;5119977;28;20268;-64
2021/10/16 14:08:58;;;;;;;13.87;9.10;;;;;;;;;;5119497;28;20562;-63
2021/10/16 14:11:26;;;;;;;12.20;9.43;;;;;;;;;;5119753;28;20284;-64
2021/10/16 14:13:56;;;;;;;13.87;9.77;;;;;;;;;;5119231;28;20231;-64
2021/10/16 14:16:24;;;;;;;18.20;10.20;;;;;;;;;;5119587;28;20215;-64
2021/10/16 14:18:52;;;;;;;12.70;9.53;;;;;;;;;;5119158;28;20215;-66
2021/10/16 14:21:21;;;;;;;14.40;9.37;;;;;;;;;;5119625;28;20228;-67
2021/10/16 14:23:49;;;;;;;13.33;8.97;;;;;;;;;;5119326;28;20228;-67
2021/10/16 14:26:17;;;;;;;11.17;8.37;;;;;;;;;;5119381;28;20204;-67
2021/10/16 14:28:46;;;;;;;11.97;9.30;;;;;;;;;;5118973;28;20574;-65
2021/10/16 14:31:15;;;;;;;10.03;8.50;;;;;;;;;;5119155;28;20293;-65
2021/10/16 14:33:44;;;;;;;10.07;8.67;;;;;;;;;;5119248;28;20206;-64
2021/10/16 14:36:12;;;;;;;13.60;9.37;;;;;;;;;;5119154;28;20212;-64
2021/10/16 14:38:41;;;;;;;11.77;9.03;;;;;;;;;;5119570;28;20241;-64
2021/10/16 14:41:10;;;;;;;12.13;8.97;;;;;;;;;;5119524;28;20201;-65
2021/10/16 14:43:39;;;;;;;9.93;8.30;;;;;;;;;;5119206;28;20205;-65